Time;durP1;ratioP1;P1;durP2;ratioP2;P2;SDS_P1;SDS_P2;PMS_P1;PMS_P2;Temp;Humidity;BMP_temperature;BMP_pressure;BME280_temperature;BME280_humidity;BME280_pressure;Samples;Min_cycle;Max_cycle;Signal;HPM_P1;HPM_P2
2022/05/17 00:01:28;;;;;;;18.33;9.10;;;12.60;99.90;;;;;;5044854;28;20746;-76
2022/05/17 00:03:55;;;;;;;14.77;9.30;;;12.60;99.90;;;;;;5045219;28;20815;-76
2022/05/17 00:06:23;;;;;;;22.70;11.23;;;12.50;99.90;;;;;;5046034;28;20687;-76
2022/05/17 00:08:50;;;;;;;17.50;9.77;;;12.40;99.90;;;;;;5044394;28;20242;-76
2022/05/17 00:11:17;;;;;;;13.97;9.10;;;12.40;99.90;;;;;;5044529;28;20330;-77
2022/05/17 00:13:44;;;;;;;17.00;10.43;;;12.30;99.90;;;;;;5044870;28;20207;-76
2022/05/17 00:16:12;;;;;;;18.43;10.27;;;12.30;99.90;;;;;;5043985;28;20215;-77
2022/05/17 00:18:39;;;;;;;21.70;11.00;;;12.20;99.90;;;;;;5043930;28;20213;-76
2022/05/17 00:21:06;;;;;;;16.97;9.00;;;12.20;99.90;;;;;;5044335;28;20234;-76
2022/05/17 00:23:37;;;;;;;15.83;9.73;;;12.10;99.90;;;;;;5043240;28;20223;-76
2022/05/17 00:26:05;;;;;;;20.93;9.47;;;12.10;99.90;;;;;;5041787;28;20222;-76
2022/05/17 00:28:32;;;;;;;13.97;9.33;;;12.10;99.90;;;;;;5044533;28;20250;-75
2022/05/17 00:31:00;;;;;;;17.93;10.73;;;12.10;99.90;;;;;;5042303;28;20314;-76
2022/05/17 00:33:27;;;;;;;23.43;10.93;;;12.00;99.90;;;;;;5039372;28;20294;-76
2022/05/17 00:35:54;;;;;;;18.23;10.63;;;12.00;99.90;;;;;;5041264;28;20203;-77
2022/05/17 00:38:21;;;;;;;10.87;7.77;;;11.90;99.90;;;;;;5043593;28;20207;-76
2022/05/17 00:40:50;;;;;;;15.50;8.83;;;11.90;99.90;;;;;;5041499;28;20223;-76
2022/05/17 00:43:29;;;;;;;15.43;8.00;;;11.80;99.90;;;;;;5038208;28;20223;-76
2022/05/17 00:46:01;;;;;;;11.83;7.53;;;11.70;99.90;;;;;;5039034;28;20670;-76
2022/05/17 00:48:29;;;;;;;16.00;9.57;;;11.70;99.90;;;;;;5041305;28;20535;-76
2022/05/17 00:50:57;;;;;;;18.83;9.50;;;11.70;99.90;;;;;;5039923;28;20254;-76
2022/05/17 00:53:28;;;;;;;17.37;9.27;;;11.70;99.90;;;;;;5035989;28;20214;-76
2022/05/17 00:56:00;;;;;;;19.13;9.57;;;11.70;99.90;;;;;;5037957;28;20207;-76
2022/05/17 00:58:32;;;;;;;17.40;9.87;;;11.70;99.90;;;;;;5042646;28;20230;-77
2022/05/17 01:01:04;;;;;;;16.97;10.70;;;11.70;99.90;;;;;;5041911;28;20227;-76
2022/05/17 01:03:35;;;;;;;13.53;8.30;;;;;;;;;;5045076;28;20788;-76
2022/05/17 01:06:03;;;;;;;15.87;8.67;;;;;;;;;;5042080;28;20207;-76
2022/05/17 01:08:31;;;;;;;12.47;7.90;;;;;;;;;;5043531;28;20207;-76
2022/05/17 01:10:59;;;;;;;12.43;8.70;;;;;;;;;;5044482;28;20251;-76
2022/05/17 01:16:12;;;;;;;20.77;9.77;;;;;;;;;;5044192;28;20575;-76
2022/05/17 01:18:40;;;;;;;17.67;10.23;;;;;;;;;;5047198;28;20653;-76
2022/05/17 01:21:09;;;;;;;15.83;9.57;;;;;;;;;;5047513;28;20250;-76
2022/05/17 01:23:36;;;;;;;13.17;8.90;;;;;;;;;;5047411;28;20687;-76
2022/05/17 01:26:05;;;;;;;12.33;8.67;;;;;;;;;;5045552;28;20298;-76
2022/05/17 01:28:34;;;;;;;18.07;9.77;;;;;;;;;;5048522;28;20207;-76
2022/05/17 01:31:05;;;;;;;18.70;9.90;;;;;;;;;;5046525;28;20238;-76
2022/05/17 01:33:33;;;;;;;19.77;10.00;;;;;;;;;;5045055;28;20199;-76
2022/05/17 01:36:00;;;;;;;19.27;10.37;;;;;;;;;;5045103;28;20207;-77
2022/05/17 01:38:29;;;;;;;21.17;9.87;;;;;;;;;;5048676;28;20299;-77
2022/05/17 01:40:56;;;;;;;15.93;10.03;;;;;;;;;;5047598;28;20307;-76
2022/05/17 01:43:24;;;;;;;18.50;9.90;;;;;;;;;;5045256;28;20617;-77
2022/05/17 01:45:51;;;;;;;15.17;8.97;;;;;;;;;;5044965;28;20236;-77
2022/05/17 01:48:18;;;;;;;19.23;10.00;;;;;;;;;;5046296;28;20239;-76
2022/05/17 01:50:46;;;;;;;15.93;10.17;;;;;;;;;;5043564;28;20226;-76
2022/05/17 01:53:13;;;;;;;20.20;10.77;;;11.70;99.90;;;;;;5042706;28;20192;-77
2022/05/17 01:55:42;;;;;;;15.63;9.83;;;11.40;99.90;;;;;;5042860;28;20223;-75
2022/05/17 01:58:09;;;;;;;16.90;10.30;;;11.50;99.90;;;;;;5046247;28;20210;-76
2022/05/17 02:00:36;;;;;;;19.07;10.13;;;11.40;99.90;;;;;;5047078;28;20708;-76
2022/05/17 02:03:03;;;;;;;18.73;11.13;;;11.30;99.90;;;;;;5044916;28;20310;-76
2022/05/17 02:05:30;;;;;;;16.37;10.77;;;11.20;99.90;;;;;;5046707;28;20250;-76
2022/05/17 02:07:57;;;;;;;20.60;11.50;;;11.20;99.90;;;;;;5045290;28;20262;-76
2022/05/17 02:10:25;;;;;;;19.97;11.23;;;11.20;99.90;;;;;;5044671;28;20279;-77
2022/05/17 02:12:55;;;;;;;16.67;10.53;;;11.20;99.90;;;;;;5046328;28;20657;-76
2022/05/17 02:15:22;;;;;;;18.77;10.13;;;11.20;99.90;;;;;;5044013;28;20262;-76
2022/05/17 02:17:49;;;;;;;21.27;9.87;;;11.20;99.90;;;;;;5041786;28;20204;-76
2022/05/17 02:20:17;;;;;;;13.57;8.40;;;11.20;99.90;;;;;;5045350;28;20227;-76
2022/05/17 02:22:43;;;;;;;19.57;10.07;;;11.30;99.90;;;;;;5045161;28;20621;-76
2022/05/17 02:25:11;;;;;;;17.37;10.53;;;11.40;99.90;;;;;;5044224;28;20254;-76
2022/05/17 02:27:39;;;;;;;17.90;10.43;;;11.40;99.90;;;;;;5047548;28;20295;-76
2022/05/17 02:30:10;;;;;;;17.73;11.20;;;11.40;99.90;;;;;;5042764;28;20295;-76
2022/05/17 02:32:37;;;;;;;19.57;11.43;;;11.50;99.90;;;;;;5045436;28;20199;-76
2022/05/17 02:35:06;;;;;;;26.33;12.77;;;11.40;99.90;;;;;;5045533;28;20302;-76
2022/05/17 02:37:33;;;;;;;20.13;12.20;;;11.30;99.90;;;;;;5045946;28;20202;-76
2022/05/17 02:40:00;;;;;;;21.43;12.00;;;11.30;99.90;;;;;;5044495;28;20198;-76
2022/05/17 02:42:27;;;;;;;21.07;12.17;;;11.30;99.90;;;;;;5044186;28;20249;-76
2022/05/17 02:44:54;;;;;;;32.43;13.83;;;11.30;99.90;;;;;;5045429;28;20325;-77
2022/05/17 02:47:23;;;;;;;27.67;12.33;;;11.30;99.90;;;;;;5040138;28;20235;-76
2022/05/17 02:49:50;;;;;;;32.03;13.67;;;11.20;99.90;;;;;;5046378;28;20285;-76
2022/05/17 02:52:17;;;;;;;24.97;13.37;;;11.20;99.90;;;;;;5038843;28;20290;-76
2022/05/17 02:54:44;;;;;;;30.90;14.20;;;11.20;99.90;;;;;;5044484;28;20207;-76
2022/05/17 02:57:11;;;;;;;25.60;13.53;;;11.20;99.90;;;;;;5043500;28;20207;-76
2022/05/17 02:59:38;;;;;;;22.60;13.57;;;11.30;99.90;;;;;;5040906;28;20670;-77
2022/05/17 03:02:05;;;;;;;41.00;13.73;;;11.40;99.90;;;;;;5044156;28;20674;-77
2022/05/17 03:04:34;;;;;;;39.10;13.57;;;;;;;;;;5042458;28;20302;-74
2022/05/17 03:07:01;;;;;;;32.13;12.83;;;;;;;;;;5040330;28;20660;-74
2022/05/17 03:09:28;;;;;;;38.53;12.33;;;;;;;;;;5042705;28;20229;-74
2022/05/17 03:11:55;;;;;;;28.70;11.73;;;11.30;99.90;;;;;;5042288;28;20258;-74
2022/05/17 03:14:22;;;;;;;48.30;11.77;;;11.40;99.90;;;;;;5044024;28;20286;-74
2022/05/17 03:16:50;;;;;;;37.77;12.27;;;11.40;99.90;;;;;;5040930;28;20218;-75
2022/05/17 03:19:18;;;;;;;42.77;12.00;;;11.40;99.90;;;;;;5046556;28;20204;-75
2022/05/17 03:21:47;;;;;;;46.30;12.90;;;11.40;99.90;;;;;;5042097;28;20338;-75
2022/05/17 03:24:15;;;;;;;24.33;12.30;;;;;;;;;;5042869;28;20284;-75
2022/05/17 03:26:42;;;;;;;43.30;13.93;;;;;;;;;;5044374;28;20276;-74
2022/05/17 03:29:10;;;;;;;28.80;12.77;;;;;;;;;;5042023;28;20242;-75
2022/05/17 03:31:37;;;;;;;23.03;11.83;;;;;;;;;;5044855;28;20716;-74
2022/05/17 03:34:04;;;;;;;23.57;11.70;;;;;;;;;;5044444;28;20660;-75
2022/05/17 03:36:31;;;;;;;21.60;11.57;;;;;;;;;;5046035;28;20207;-75
2022/05/17 03:39:00;;;;;;;21.73;12.10;;;;;;;;;;5043885;28;20205;-75
2022/05/17 03:41:28;;;;;;;32.57;12.97;;;;;;;;;;5046738;28;20330;-75
2022/05/17 03:43:55;;;;;;;44.57;13.20;;;;;;;;;;5046691;28;20280;-75
2022/05/17 03:46:22;;;;;;;36.10;11.93;;;;;;;;;;5046423;28;20211;-75
2022/05/17 03:48:49;;;;;;;29.20;12.13;;;;;;;;;;5044559;28;20677;-75
2022/05/17 03:51:17;;;;;;;48.83;12.77;;;;;;;;;;5046287;28;20315;-75
2022/05/17 03:53:45;;;;;;;65.83;13.13;;;;;;;;;;5044797;28;20583;-75
2022/05/17 03:56:14;;;;;;;35.17;10.83;;;;;;;;;;5043622;28;20245;-75
2022/05/17 03:58:41;;;;;;;51.30;11.83;;;;;;;;;;5041708;28;20199;-75
2022/05/17 04:01:08;;;;;;;37.03;12.10;;;;;;;;;;5045111;28;20322;-75
2022/05/17 04:03:37;;;;;;;58.00;12.70;;;;;;;;;;5042879;28;20294;-75
2022/05/17 04:06:05;;;;;;;50.50;14.17;;;;;;;;;;5044069;28;20664;-75
2022/05/17 04:08:33;;;;;;;60.67;12.97;;;;;;;;;;5043007;28;20299;-75
2022/05/17 04:11:00;;;;;;;56.57;14.33;;;;;;;;;;5046267;28;20310;-75
2022/05/17 04:13:29;;;;;;;37.33;12.53;;;;;;;;;;5044018;28;20202;-75
2022/05/17 04:15:58;;;;;;;63.53;14.57;;;;;;;;;;5044555;28;20210;-75
2022/05/17 04:18:25;;;;;;;69.30;13.57;;;;;;;;;;5043246;28;20685;-75
2022/05/17 04:20:52;;;;;;;22.30;12.40;;;;;;;;;;5041339;28;20229;-75
2022/05/17 04:23:20;;;;;;;24.33;11.53;;;;;;;;;;5040711;28;20199;-75
2022/05/17 04:25:47;;;;;;;33.27;13.37;;;;;;;;;;5043161;28;20296;-74
2022/05/17 04:28:14;;;;;;;30.37;12.60;;;;;;;;;;5043969;28;20712;-74
2022/05/17 04:30:43;;;;;;;33.80;12.77;;;;;;;;;;5042490;28;20234;-75
2022/05/17 04:33:11;;;;;;;32.70;14.10;;;;;;;;;;5041333;28;20520;-75
2022/05/17 04:35:38;;;;;;;33.37;12.73;;;;;;;;;;5050790;28;20227;-75
2022/05/17 04:38:06;;;;;;;26.00;13.43;;;;;;;;;;5049126;28;20225;-75
2022/05/17 04:40:34;;;;;;;34.63;13.30;;;;;;;;;;5046926;28;20709;-75
2022/05/17 04:43:01;;;;;;;39.53;12.90;;;;;;;;;;5042528;28;20234;-75
2022/05/17 04:45:28;;;;;;;25.37;12.60;;;;;;;;;;5044596;28;20494;-75
2022/05/17 04:47:57;;;;;;;34.80;12.93;;;;;;;;;;5046854;28;20238;-75
2022/05/17 04:50:24;;;;;;;30.00;12.37;;;;;;;;;;5046733;28;20309;-75
2022/05/17 04:52:51;;;;;;;36.47;13.73;;;;;;;;;;5045496;28;20697;-74
2022/05/17 04:55:19;;;;;;;29.60;12.87;;;;;;;;;;5043613;28;20254;-75
2022/05/17 04:57:47;;;;;;;27.70;12.37;;;;;;;;;;5046412;28;20213;-75
2022/05/17 05:00:16;;;;;;;26.23;13.27;;;;;;;;;;5045738;28;20211;-75
2022/05/17 05:02:43;;;;;;;29.97;13.33;;;;;;;;;;5046562;28;20354;-74
2022/05/17 05:05:12;;;;;;;20.70;12.30;;;;;;;;;;5045916;28;20223;-75
2022/05/17 05:07:39;;;;;;;26.40;12.53;;;;;;;;;;5043972;28;20260;-75
2022/05/17 05:10:07;;;;;;;26.30;13.30;;;;;;;;;;5044899;28;20870;-75
2022/05/17 05:12:35;;;;;;;38.73;13.23;;;;;;;;;;5043610;28;20238;-75
2022/05/17 05:15:02;;;;;;;49.60;12.73;;;;;;;;;;5047572;28;20564;-75
2022/05/17 05:17:30;;;;;;;27.53;12.93;;;;;;;;;;5044931;28;20699;-75
2022/05/17 05:19:58;;;;;;;32.77;11.77;;;;;;;;;;5045638;28;20732;-75
2022/05/17 05:22:26;;;;;;;23.63;11.20;;;;;;;;;;5047703;28;20276;-75
2022/05/17 05:24:54;;;;;;;19.33;11.63;;;;;;;;;;5042807;28;20316;-75
2022/05/17 05:27:21;;;;;;;19.07;11.07;;;;;;;;;;5042123;28;20654;-75
2022/05/17 05:29:48;;;;;;;28.70;11.93;;;;;;;;;;5044169;28;20203;-75
2022/05/17 05:32:16;;;;;;;24.37;11.10;;;;;;;;;;5044412;28;20235;-75
2022/05/17 05:34:43;;;;;;;19.53;10.93;;;;;;;;;;5045957;28;20276;-76
2022/05/17 05:37:10;;;;;;;20.83;11.33;;;;;;;;;;5039883;28;20200;-76
2022/05/17 05:39:38;;;;;;;21.27;12.13;;;;;;;;;;5043717;28;20225;-75
2022/05/17 05:42:06;;;;;;;23.77;11.30;;;;;;;;;;5043318;28;20581;-76
2022/05/17 05:44:33;;;;;;;18.67;11.03;;;;;;;;;;5039089;28;20631;-75
2022/05/17 05:47:01;;;;;;;22.77;10.97;;;;;;;;;;5040057;28;20199;-76
2022/05/17 05:49:28;;;;;;;22.17;12.07;;;;;;;;;;5043327;28;20206;-76
2022/05/17 05:51:55;;;;;;;19.33;11.90;;;;;;;;;;5042568;28;20626;-75
2022/05/17 05:54:23;;;;;;;21.93;13.90;;;;;;;;;;5040360;28;20250;-75
2022/05/17 05:56:51;;;;;;;19.73;11.80;;;;;;;;;;5041995;28;20246;-75
2022/05/17 05:59:18;;;;;;;19.33;12.67;;;;;;;;;;5041954;28;20211;-76
2022/05/17 06:01:46;;;;;;;20.17;11.90;;;;;;;;;;5042142;28;20219;-76
2022/05/17 06:04:13;;;;;;;18.33;11.07;;;;;;;;;;5044462;28;20264;-75
2022/05/17 06:06:40;;;;;;;16.53;10.83;;;;;;;;;;5044733;28;20299;-76
2022/05/17 06:09:07;;;;;;;18.83;11.00;;;;;;;;;;5044660;28;20668;-76
2022/05/17 06:11:35;;;;;;;19.97;10.90;;;;;;;;;;5041884;28;20330;-77
2022/05/17 06:14:03;;;;;;;31.03;11.17;;;;;;;;;;5045109;28;20294;-76
2022/05/17 06:16:30;;;;;;;22.13;10.70;;;;;;;;;;5043084;28;20299;-76
2022/05/17 06:18:57;;;;;;;20.17;11.60;;;;;;;;;;5040856;28;20204;-77
2022/05/17 06:21:25;;;;;;;23.27;11.97;;;;;;;;;;5045201;28;20308;-77
2022/05/17 06:23:52;;;;;;;16.30;10.17;;;;;;;;;;5044497;28;20691;-77
2022/05/17 06:26:19;;;;;;;19.30;11.07;;;;;;;;;;5044078;28;20593;-76
2022/05/17 06:28:46;;;;;;;19.30;10.57;;;;;;;;;;5044068;28;21229;-76
2022/05/17 06:31:15;;;;;;;20.53;10.50;;;;;;;;;;5041407;28;20668;-77
2022/05/17 06:33:42;;;;;;;21.80;11.10;;;;;;;;;;5046114;28;20294;-76
2022/05/17 06:36:09;;;;;;;16.47;10.47;;;;;;;;;;5043975;28;20218;-77
2022/05/17 06:38:36;;;;;;;16.83;10.20;;;;;;;;;;5042932;28;20203;-77
2022/05/17 06:41:04;;;;;;;17.00;9.20;;;11.40;99.90;;;;;;5045246;28;20233;-77
2022/05/17 06:43:34;;;;;;;16.87;9.13;;;;;;;;;;5046736;28;20215;-76
2022/05/17 06:46:01;;;;;;;13.77;8.37;;;;;;;;;;5045302;28;20230;-76
2022/05/17 06:48:30;;;;;;;18.73;9.20;;;;;;;;;;5043558;28;20271;-77
2022/05/17 06:51:02;;;;;;;14.40;8.43;;;;;;;;;;5042561;28;20306;-77
2022/05/17 06:53:30;;;;;;;13.23;8.53;;;;;;;;;;5039633;28;20214;-76
2022/05/17 06:55:57;;;;;;;15.60;8.10;;;;;;;;;;5044160;28;20199;-75
2022/05/17 06:58:24;;;;;;;11.83;7.80;;;;;;;;;;5040589;28;20648;-74
2022/05/17 07:00:52;;;;;;;11.73;7.43;;;;;;;;;;5045881;28;20223;-75
2022/05/17 07:03:19;;;;;;;13.33;7.77;;;;;;;;;;5046483;28;20330;-75
2022/05/17 07:05:47;;;;;;;13.60;8.30;;;;;;;;;;5042560;28;20674;-76
2022/05/17 07:08:15;;;;;;;10.97;6.77;;;;;;;;;;5041193;28;20201;-76
2022/05/17 07:13:27;;;;;;;12.93;7.40;;;;;;;;;;5040739;28;20276;-76
2022/05/17 07:15:56;;;;;;;13.57;6.63;;;;;;;;;;5045161;28;20195;-75
2022/05/17 07:18:24;;;;;;;11.10;7.13;;;;;;;;;;5039654;28;20357;-75
2022/05/17 07:20:53;;;;;;;14.53;7.20;;;;;;;;;;5040497;28;20224;-75
2022/05/17 07:23:24;;;;;;;13.87;6.97;;;;;;;;;;5041046;28;20215;-76
2022/05/17 07:26:01;;;;;;;11.30;6.80;;;;;;;;;;5040659;28;20272;-77
2022/05/17 07:28:28;;;;;;;9.23;6.93;;;;;;;;;;5038604;28;20230;-75
2022/05/17 07:30:55;;;;;;;13.73;6.97;;;;;;;;;;5038502;28;20732;-74
2022/05/17 07:33:22;;;;;;;16.50;7.20;;;;;;;;;;5042216;28;20209;-75
2022/05/17 07:35:50;;;;;;;11.90;6.50;;;;;;;;;;5038766;28;20238;-75
2022/05/17 07:38:19;;;;;;;14.03;6.57;;;;;;;;;;5041581;28;20215;-75
2022/05/17 07:40:46;;;;;;;11.20;6.23;;;;;;;;;;5038983;28;20310;-75
2022/05/17 07:43:13;;;;;;;15.37;6.53;;;;;;;;;;5042366;28;20309;-74
2022/05/17 07:45:41;;;;;;;12.80;6.33;;;;;;;;;;5042719;28;20219;-75
2022/05/17 07:48:08;;;;;;;12.60;6.30;;;;;;;;;;5042461;28;20234;-76
2022/05/17 07:50:35;;;;;;;11.17;6.83;;;;;;;;;;5039884;28;20307;-76
2022/05/17 07:53:07;;;;;;;11.00;6.33;;;;;;;;;;5043418;28;20696;-76
2022/05/17 07:55:37;;;;;;;15.00;7.23;;;;;;;;;;5039345;28;20200;-76
2022/05/17 07:58:04;;;;;;;13.63;7.17;;;;;;;;;;5040542;28;20206;-76
2022/05/17 08:00:32;;;;;;;11.40;6.83;;;;;;;;;;5039413;28;20655;-75
2022/05/17 08:02:59;;;;;;;15.00;6.13;;;;;;;;;;5041546;28;20229;-76
2022/05/17 08:05:27;;;;;;;14.30;6.90;;;;;;;;;;5044377;28;20314;-75
2022/05/17 08:07:55;;;;;;;18.83;7.47;;;;;;;;;;5039213;28;20195;-74
2022/05/17 08:10:22;;;;;;;11.63;6.27;;;;;;;;;;5041657;28;20353;-75
2022/05/17 08:12:51;;;;;;;19.50;7.10;;;;;;;;;;5043283;28;20241;-76
2022/05/17 08:15:19;;;;;;;12.33;5.70;;;;;;;;;;5041031;28;20325;-75
2022/05/17 08:17:46;;;;;;;14.67;5.67;;;;;;;;;;5038264;28;20202;-75
2022/05/17 08:20:14;;;;;;;9.97;4.73;;;;;;;;;;5039222;28;20235;-76
2022/05/17 08:22:41;;;;;;;8.97;4.60;;;;;;;;;;5035255;28;20356;-76
2022/05/17 08:27:56;;;;;;;8.33;3.53;;;;;;;;;;5036722;28;20231;-74
2022/05/17 08:30:26;;;;;;;8.70;4.27;;;;;;;;;;5039464;28;20660;-74
2022/05/17 08:35:52;;;;;;;15.60;4.93;;;;;;;;;;4996824;28;20656;-74
2022/05/17 08:38:21;;;;;;;8.97;4.13;;;;;;;;;;5031498;28;20220;-74
2022/05/17 08:40:54;;;;;;;12.43;4.23;;;;;;;;;;5043108;28;20235;-74
2022/05/17 08:43:26;;;;;;;10.10;4.60;;;;;;;;;;5038851;28;20760;-74
2022/05/17 08:45:59;;;;;;;11.70;4.40;;;;;;;;;;5043538;28;20539;-75
2022/05/17 08:48:29;;;;;;;9.30;4.37;;;;;;;;;;5038521;28;20250;-74
2022/05/17 08:50:56;;;;;;;11.93;4.40;;;;;;;;;;5041697;28;20235;-74
2022/05/17 08:53:23;;;;;;;9.80;4.20;;;;;;;;;;5038918;28;20213;-75
2022/05/17 08:55:52;;;;;;;9.03;4.23;;;;;;;;;;5040733;28;20605;-75
2022/05/17 08:58:21;;;;;;;8.80;3.87;;;;;;;;;;5039718;28;20215;-75
2022/05/17 09:00:52;;;;;;;12.00;3.50;;;;;;;;;;5044435;28;20257;-75
2022/05/17 09:03:26;;;;;;;13.60;3.70;;;;;;;;;;5040684;28;20234;-74
2022/05/17 09:05:56;;;;;;;8.67;3.47;;;;;;;;;;5043706;28;20241;-75
2022/05/17 09:08:28;;;;;;;8.70;3.20;;;;;;;;;;5044480;28;20314;-75
2022/05/17 09:10:56;;;;;;;7.53;3.50;;;;;;;;;;5042509;28;20227;-74
2022/05/17 09:13:27;;;;;;;10.13;2.77;;;;;;;;;;5042031;28;20303;-75
2022/05/17 09:15:57;;;;;;;6.57;2.17;;;;;;;;;;5039342;28;20206;-75
2022/05/17 09:18:25;;;;;;;6.70;3.07;;;;;;;;;;5039994;28;20210;-74
2022/05/17 09:20:52;;;;;;;7.30;2.70;;;;;;;;;;5042818;28;20224;-75
2022/05/17 09:23:19;;;;;;;6.43;2.60;;;;;;;;;;5047160;28;20291;-75
2022/05/17 09:25:51;;;;;;;4.07;2.23;;;;;;;;;;5045317;28;20226;-74
2022/05/17 09:28:19;;;;;;;7.63;2.43;;;;;;;;;;5043954;28;20275;-74
2022/05/17 09:30:46;;;;;;;6.43;2.20;;;;;;;;;;5048569;28;20266;-74
2022/05/17 09:33:17;;;;;;;7.37;2.10;;;;;;;;;;5045193;28;20199;-74
2022/05/17 09:35:45;;;;;;;5.73;2.10;;;;;;;;;;5048807;28;20221;-75
2022/05/17 09:38:14;;;;;;;9.10;2.03;;;;;;;;;;5048818;28;20419;-74
2022/05/17 09:40:42;;;;;;;8.50;2.10;;;;;;;;;;5046874;28;20787;-75
2022/05/17 09:43:11;;;;;;;6.13;2.07;;;;;;;;;;5046357;28;20635;-75
2022/05/17 09:45:40;;;;;;;5.63;2.07;;;;;;;;;;5048236;28;20223;-74
2022/05/17 09:48:08;;;;;;;8.80;1.90;;;;;;;;;;5049335;28;20236;-75
2022/05/17 09:53:40;;;;;;;4.87;2.03;;;;;;;;;;5046697;28;20298;-75
2022/05/17 09:56:07;;;;;;;2.93;1.60;;;;;;;;;;5047568;28;20208;-74
2022/05/17 09:58:36;;;;;;;9.67;1.83;;;;;;;;;;5045829;28;20290;-74
2022/05/17 10:01:09;;;;;;;7.03;1.87;;;;;;;;;;5044738;28;20291;-75
2022/05/17 10:03:37;;;;;;;6.77;1.77;;;;;;;;;;5046587;28;20231;-74
2022/05/17 10:06:07;;;;;;;6.80;1.70;;;;;;;;;;5046295;28;20219;-74
2022/05/17 10:08:38;;;;;;;7.03;1.90;;;;;;;;;;5048439;28;20218;-74
2022/05/17 10:11:22;;;;;;;4.67;1.47;;;;;;;;;;5046866;28;20322;-74
2022/05/17 10:14:04;;;;;;;7.20;1.63;;;;;;;;;;5046332;28;20253;-74
2022/05/17 10:16:35;;;;;;;4.77;1.50;;;;;;;;;;5045623;28;20352;-74
2022/05/17 10:19:05;;;;;;;5.90;1.50;;;;;;;;;;5045882;28;20310;-74
2022/05/17 10:21:37;;;;;;;7.30;1.77;;;;;;;;;;5045289;28;20269;-74
2022/05/17 10:24:07;;;;;;;7.37;1.47;;;;;;;;;;5045315;28;20247;-74
2022/05/17 10:26:38;;;;;;;8.47;1.60;;;;;;;;;;5047023;28;20769;-74
2022/05/17 10:29:09;;;;;;;8.27;1.83;;;;;;;;;;5046169;28;20223;-74
2022/05/17 10:31:38;;;;;;;4.67;1.60;;;;;;;;;;5039071;28;20239;-74
2022/05/17 10:34:10;;;;;;;4.83;1.50;;;;;;;;;;5039712;28;20204;-74
2022/05/17 10:36:42;;;;;;;5.47;1.77;;;;;;;;;;5044977;28;20203;-74
2022/05/17 10:39:13;;;;;;;3.27;1.50;;;;;;;;;;5046046;28;20254;-74
2022/05/17 10:41:40;;;;;;;8.60;1.70;;;;;;;;;;5044471;28;21102;-74
2022/05/17 10:44:07;;;;;;;3.90;1.53;;;;;;;;;;5045026;28;20321;-74
2022/05/17 10:46:39;;;;;;;5.47;1.60;;;;;;;;;;5044531;28;20312;-74
2022/05/17 10:49:20;;;;;;;9.87;1.47;;;;;;;;;;5043227;28;20215;-75
2022/05/17 10:51:52;;;;;;;4.17;1.40;;;;;;;;;;5045381;28;20313;-75
2022/05/17 10:54:27;;;;;;;4.37;1.70;;;;;;;;;;5043305;28;20288;-74
2022/05/17 10:57:03;;;;;;;4.97;1.43;;;;;;;;;;5045174;28;20620;-74
2022/05/17 10:59:37;;;;;;;4.07;1.27;;;;;;;;;;5041928;28;20300;-74
2022/05/17 11:02:11;;;;;;;8.57;1.47;;;;;;;;;;5044765;28;20643;-74
2022/05/17 11:05:00;;;;;;;4.10;1.50;;;;;;;;;;5042847;28;20199;-74
2022/05/17 11:07:34;;;;;;;3.47;1.50;;;;;;;;;;5048098;28;20875;-74
2022/05/17 11:10:04;;;;;;;6.63;1.50;;;;;;;;;;5040828;28;20273;-75
2022/05/17 11:12:34;;;;;;;5.57;1.40;;;;;;;;;;5043535;28;20235;-74
2022/05/17 11:15:04;;;;;;;5.87;1.43;;;;;;;;;;5044738;28;20302;-74
2022/05/17 11:17:34;;;;;;;4.13;1.40;;;;;;;;;;5042623;28;20724;-74
2022/05/17 11:20:07;;;;;;;3.97;1.20;;;;;;;;;;5045936;28;20210;-74
2022/05/17 11:22:39;;;;;;;3.07;1.40;;;;;;;;;;5043788;28;20294;-73
2022/05/17 11:25:16;;;;;;;6.53;1.50;;;;;;;;;;5046590;28;20217;-74
2022/05/17 11:27:52;;;;;;;3.77;1.50;;;;;;;;;;5043141;28;20585;-75
2022/05/17 11:30:20;;;;;;;2.33;1.10;;;;;;;;;;5044114;28;20321;-74
2022/05/17 11:33:06;;;;;;;2.80;1.23;;;;;;;;;;5043312;28;20622;-74
2022/05/17 11:35:41;;;;;;;9.20;1.40;;;;;;;;;;5044625;28;20207;-74
2022/05/17 11:38:19;;;;;;;5.20;1.30;;;;;;;;;;5044851;28;20232;-74
2022/05/17 11:40:54;;;;;;;3.50;1.47;;;;;;;;;;5044595;28;20222;-75
2022/05/17 11:43:41;;;;;;;3.90;1.03;;;;;;;;;;5047146;28;20572;-74
2022/05/17 11:46:38;;;;;;;4.50;1.60;;;;;;;;;;5043166;28;20262;-75
2022/05/17 11:49:21;;;;;;;4.17;1.17;;;;;;;;;;5045440;28;20261;-74
2022/05/17 11:52:03;;;;;;;3.17;1.30;;;;;;;;;;5044065;28;20218;-75
2022/05/17 11:54:42;;;;;;;3.37;1.20;;;;;;;;;;5046042;28;20226;-74
2022/05/17 11:57:10;;;;;;;5.83;1.40;;;;;;;;;;5043145;28;20302;-74
2022/05/17 11:59:43;;;;;;;2.93;1.27;;;;;;;;;;5048108;28;20207;-75
2022/05/17 12:02:12;;;;;;;4.00;1.50;;;;;;;;;;5040785;28;20266;-74
2022/05/17 12:04:43;;;;;;;3.77;1.30;;;;;;;;;;5042483;28;20207;-74
2022/05/17 12:07:25;;;;;;;4.80;1.33;;;;;;;;;;5037788;28;20606;-74
2022/05/17 12:09:53;;;;;;;2.40;1.40;;;;;;;;;;5037528;28;20877;-74
2022/05/17 12:12:53;;;;;;;4.57;1.40;;;;;;;;;;5039032;28;20234;-74
2022/05/17 12:15:35;;;;;;;5.67;1.40;;;;;;;;;;5038220;28;20318;-74
2022/05/17 12:18:21;;;;;;;7.43;1.20;;;;;;;;;;5042733;28;20214;-74
2022/05/17 12:21:02;;;;;;;3.80;1.30;;;;;;;;;;5037965;28;20226;-75
2022/05/17 12:23:33;;;;;;;4.80;1.50;;;;;;;;;;5043884;28;20664;-74
2022/05/17 12:26:01;;;;;;;7.23;1.47;;;;;;;;;;5041439;28;20206;-74
2022/05/17 12:28:31;;;;;;;3.77;1.47;;;;;;;;;;5045042;28;20202;-74
2022/05/17 12:31:00;;;;;;;8.23;1.77;;;;;;;;;;5043811;28;20254;-74
2022/05/17 12:33:29;;;;;;;2.77;1.20;;;;;;;;;;5041745;28;20614;-74
2022/05/17 12:36:12;;;;;;;2.10;1.20;;;;;;;;;;5042718;28;20210;-74
2022/05/17 12:44:13;;;;;;;3.77;1.47;;;;;;;;;;5039939;28;20244;-75
2022/05/17 12:46:40;;;;;;;5.87;1.63;;;;;;;;;;5037752;28;20216;-74
2022/05/17 12:49:14;;;;;;;5.97;2.00;;;;;;;;;;5037199;28;20655;-74
2022/05/17 12:51:43;;;;;;;15.07;2.63;;;;;;;;;;5040506;28;20253;-74
2022/05/17 12:54:13;;;;;;;8.87;2.37;;;;;;;;;;5039060;28;20569;-74
2022/05/17 12:56:43;;;;;;;9.03;2.17;;;;;;;;;;5044811;28;20195;-74
2022/05/17 12:59:11;;;;;;;12.23;2.93;;;;;;;;;;5043294;28;20211;-74
2022/05/17 13:01:41;;;;;;;8.10;2.17;;;;;;;;;;5043679;28;20223;-74
2022/05/17 13:04:10;;;;;;;7.63;2.73;;;;;;;;;;5045624;28;20207;-74
2022/05/17 13:06:38;;;;;;;6.67;2.50;;;;;;;;;;5043092;28;20228;-74
2022/05/17 13:09:07;;;;;;;7.53;2.00;;;;;;;;;;5045136;28;20199;-73
2022/05/17 13:11:35;;;;;;;3.77;1.90;;;;;;;;;;5045776;28;20229;-74
2022/05/17 13:14:08;;;;;;;5.20;2.10;;;;;;;;;;5042549;28;20211;-74
2022/05/17 13:16:37;;;;;;;7.17;2.40;;;;;;;;;;5047356;28;20661;-74
2022/05/17 13:19:05;;;;;;;6.63;2.20;;;;;;;;;;5045025;28;20211;-74
2022/05/17 13:21:34;;;;;;;7.10;1.93;;;;;;;;;;5044985;28;20241;-75
2022/05/17 13:24:02;;;;;;;7.13;2.20;;;;;;;;;;5043134;28;20761;-74
2022/05/17 13:26:32;;;;;;;3.87;1.97;;;;;;;;;;5046932;28;20199;-74
2022/05/17 13:29:12;;;;;;;7.43;2.10;;;;;;;;;;5043393;28;20274;-74
2022/05/17 13:31:39;;;;;;;7.23;2.73;;;;;;;;;;5046088;28;20234;-74
2022/05/17 13:34:07;;;;;;;5.03;1.90;;;;;;;;;;5047255;28;20212;-74
2022/05/17 13:36:36;;;;;;;7.23;2.30;;;;;;;;;;5043490;28;20745;-74
2022/05/17 13:39:03;;;;;;;6.90;2.13;;;;;;;;;;5043796;28;20231;-74
2022/05/17 13:41:37;;;;;;;6.67;2.30;;;;;;;;;;5043315;28;20640;-74
2022/05/17 13:44:04;;;;;;;10.03;2.40;;;;;;;;;;5044217;28;20264;-74
2022/05/17 13:46:34;;;;;;;8.07;2.23;;;;;;;;;;5038466;28;20298;-74
2022/05/17 13:49:08;;;;;;;6.97;2.07;;;;;;;;;;5044606;28;20204;-74
2022/05/17 13:51:50;;;;;;;5.33;2.17;;;;;;;;;;5042663;28;20714;-74
2022/05/17 13:54:23;;;;;;;4.50;1.70;;;;;;;;;;5042167;28;20215;-74
2022/05/17 13:56:55;;;;;;;5.93;2.03;;;;;;;;;;5046303;28;20195;-74
2022/05/17 13:59:23;;;;;;;7.23;2.20;;;;;;;;;;5040328;28;20700;-74
2022/05/17 14:01:55;;;;;;;5.73;2.00;;;;;;;;;;5043506;28;20704;-73
2022/05/17 14:04:24;;;;;;;5.47;2.00;;;;;;;;;;5043627;28;20213;-75
2022/05/17 14:06:54;;;;;;;6.97;1.93;;;;;;;;;;5042746;28;20821;-75
2022/05/17 14:12:17;;;;;;;5.83;2.20;;;;;;;;;;5041132;28;20233;-75
2022/05/17 14:14:45;;;;;;;5.80;1.90;;;;;;;;;;5042817;28;20662;-75
2022/05/17 14:17:14;;;;;;;4.13;1.70;;;;;;;;;;5038928;28;20308;-75
2022/05/17 14:19:42;;;;;;;4.23;1.83;;;;;;;;;;5043522;28;20292;-75
2022/05/17 14:22:10;;;;;;;3.43;1.83;;;;;;;;;;5044634;28;20716;-75
2022/05/17 14:24:37;;;;;;;7.30;2.00;;;;;;;;;;5045382;28;20301;-75
2022/05/17 14:27:05;;;;;;;9.30;1.90;;;;;;;;;;5043648;28;20256;-75
2022/05/17 14:29:34;;;;;;;3.67;1.63;;;;;;;;;;5041908;28;20214;-75
2022/05/17 14:32:03;;;;;;;5.00;1.50;;;;;;;;;;5043283;28;20702;-75
2022/05/17 14:34:30;;;;;;;5.10;1.90;;;;;;;;;;5045156;28;20207;-75
2022/05/17 14:36:58;;;;;;;7.83;2.20;;;;;;;;;;5043312;28;20202;-75
2022/05/17 14:39:25;;;;;;;2.60;1.60;;;;;;;;;;5045441;28;20286;-75
2022/05/17 14:41:53;;;;;;;6.60;1.97;;;;;;;;;;5042361;28;20215;-75
2022/05/17 14:44:21;;;;;;;4.43;1.70;;;;;;;;;;5044354;28;20820;-75